Station Historical Data
Daily Summary for March 4, 2012 Units:  Metric    English   Both
« Previous Day
Next Day »
Daily Weekly Monthly Yearly Custom
  High: Low: Average:
Temperature: 12.5 °C -0.7 °C 6.8 °C
Dew Point: -1.4 °C -6.3 °C -4.1 °C
Humidity: 79% 29% 48%
Wind Speed: 30.6km/h 0km/h 7.9km/h
Wind Gust: 38.6km/h - -
Wind- - WSW
Pressure: 1017.2 hPa 1013.1 hPa -
Precipitation: 0 mm    
Historical Graphs
 
 
Tabular Data for March 4, 2012
Time Temperature Dew Point Pressure Wind Wind Speed Wind Gust Humidity Rainfall Rate (Hourly) Conditions
00:00 4.8 °C -5.5 °C 1013.4 hPa WNW 3.2 km/h 4.8 km/h 47% 0 mm
00:01 4.8 °C -5.8 °C 1013.4 hPa WNW 3.2 km/h 4.8 km/h 46% 0 mm
00:06 4.8 °C -5.6 °C 1013.1 hPa WNW 1.6 km/h 4.8 km/h 47% 0 mm
00:07 4.7 °C -5.6 °C 1013.1 hPa WNW 3.2 km/h 3.2 km/h 47% 0 mm
00:12 4.6 °C -5.7 °C 1013.1 hPa WNW 6.4 km/h 6.4 km/h 47% 0 mm
00:17 4.6 °C -5.7 °C 1013.1 hPa WNW 6.4 km/h 6.4 km/h 47% 0 mm
00:22 4.6 °C -5.8 °C 1013.1 hPa WNW 3.2 km/h 6.4 km/h 47% 0 mm
00:27 4.5 °C -5.8 °C 1013.1 hPa West 3.2 km/h 6.4 km/h 47% 0 mm
00:32 4.3 °C -5.7 °C 1013.1 hPa WNW 4.8 km/h 6.4 km/h 48% 0 mm
00:37 4.2 °C -5.8 °C 1013.1 hPa WNW 4.8 km/h 4.8 km/h 48% 0 mm
00:42 4.1 °C -5.9 °C 1013.4 hPa WNW 3.2 km/h 4.8 km/h 48% 0 mm
00:47 4.1 °C -5.7 °C 1013.4 hPa West 4.8 km/h 6.4 km/h 49% 0 mm
00:52 4 °C -5.7 °C 1013.4 hPa West 3.2 km/h 6.4 km/h 49% 0 mm
00:57 3.9 °C -5.8 °C 1013.4 hPa NW 6.4 km/h 9.7 km/h 49% 0 mm
01:02 3.8 °C -5.9 °C 1013.4 hPa WNW 4.8 km/h 8 km/h 49% 0 mm
01:07 3.8 °C -5.9 °C 1013.4 hPa WNW 6.4 km/h 8 km/h 49% 0 mm
01:12 3.8 °C -5.9 °C 1013.4 hPa WNW 3.2 km/h 8 km/h 49% 0 mm
01:17 3.7 °C -6.1 °C 1013.4 hPa WNW 9.7 km/h 9.7 km/h 49% 0 mm
01:22 3.8 °C -5.9 °C 1013.4 hPa WNW 9.7 km/h 9.7 km/h 49% 0 mm
01:28 3.8 °C -5.9 °C 1013.4 hPa NW 4.8 km/h 9.7 km/h 49% 0 mm
01:33 3.8 °C -6.2 °C 1013.4 hPa WNW 6.4 km/h 11.3 km/h 48% 0 mm
01:38 3.7 °C -6.1 °C 1013.8 hPa WNW 6.4 km/h 8 km/h 49% 0 mm
01:43 3.6 °C -6.1 °C 1013.8 hPa WNW 4.8 km/h 9.7 km/h 49% 0 mm
01:48 3.6 °C -6.2 °C 1013.8 hPa WNW 8 km/h 9.7 km/h 49% 0 mm
01:53 3.5 °C -6.2 °C 1013.8 hPa West 6.4 km/h 9.7 km/h 49% 0 mm
01:58 3.4 °C -6 °C 1013.8 hPa WNW 4.8 km/h 8 km/h 50% 0 mm
02:03 3.4 °C -6.1 °C 1013.8 hPa WNW 6.4 km/h 9.7 km/h 50% 0 mm
02:08 3.3 °C -6.1 °C 1013.8 hPa WNW 6.4 km/h 9.7 km/h 50% 0 mm
02:13 3.2 °C -6.2 °C 1013.8 hPa WNW 4.8 km/h 6.4 km/h 50% 0 mm
02:18 3.1 °C -6.3 °C 1013.8 hPa WNW 4.8 km/h 6.4 km/h 50% 0 mm
02:23 3.1 °C -6.1 °C 1013.8 hPa WNW 8 km/h 9.7 km/h 51% 0 mm
02:28 3.1 °C -6.1 °C 1013.8 hPa WNW 6.4 km/h 9.7 km/h 51% 0 mm
02:33 3.1 °C -6.1 °C 1013.8 hPa WNW 4.8 km/h 8 km/h 51% 0 mm
02:38 3.1 °C -6.1 °C 1013.8 hPa WNW 8 km/h 8 km/h 51% 0 mm
02:43 3 °C -6.2 °C 1013.8 hPa WNW 4.8 km/h 8 km/h 51% 0 mm
02:48 2.8 °C -6.1 °C 1013.8 hPa NW 4.8 km/h 4.8 km/h 52% 0 mm
02:53 2.7 °C -6.2 °C 1013.8 hPa NW 4.8 km/h 4.8 km/h 52% 0 mm
02:58 2.7 °C -6.2 °C 1013.8 hPa NW 1.6 km/h 3.2 km/h 52% 0 mm
03:03 2.8 °C -6.1 °C 1013.8 hPa NW 1.6 km/h 3.2 km/h 52% 0 mm
03:08 2.8 °C -6.1 °C 1013.8 hPa NW 3.2 km/h 3.2 km/h 52% 0 mm
03:13 2.7 °C -6.2 °C 1013.8 hPa NW 3.2 km/h 4.8 km/h 52% 0 mm
03:18 2.5 °C -6.1 °C 1013.8 hPa NW 3.2 km/h 3.2 km/h 53% 0 mm
03:23 2.3 °C -6.1 °C 1013.8 hPa WNW 6.4 km/h 6.4 km/h 54% 0 mm
03:28 2.1 °C -6.1 °C 1013.8 hPa WNW 4.8 km/h 4.8 km/h 55% 0 mm
03:33 1.9 °C -5.9 °C 1013.8 hPa WNW 1.6 km/h 4.8 km/h 56% 0 mm
03:38 1.8 °C -6 °C 1013.8 hPa WNW 1.6 km/h 4.8 km/h 56% 0 mm
03:43 1.7 °C -5.9 °C 1013.8 hPa WNW 1.6 km/h 3.2 km/h 57% 0 mm
03:48 1.7 °C -5.9 °C 1013.8 hPa West 1.6 km/h 3.2 km/h 57% 0 mm
03:53 1.6 °C -6 °C 1013.8 hPa Calm   1.6 km/h 57% 0 mm
03:58 1.7 °C -5.9 °C 1013.8 hPa WNW 1.6 km/h 1.6 km/h 57% 0 mm
04:04 1.6 °C -6 °C 1014.1 hPa West 1.6 km/h 1.6 km/h 57% 0 mm
04:09 1.6 °C -6.1 °C 1014.1 hPa SW 1.6 km/h 1.6 km/h 57% 0 mm
04:14 1.5 °C -6.1 °C 1014.1 hPa Calm   1.6 km/h 57% 0 mm
04:19 1.3 °C -6 °C 1014.1 hPa Calm   1.6 km/h 58% 0 mm
04:24 1.1 °C -6.2 °C 1014.1 hPa Calm     58% 0 mm
04:29 0.8 °C -5.9 °C 1013.8 hPa Calm     61% 0 mm
04:34 0.6 °C -5.2 °C 1013.8 hPa Calm     65% 0 mm
04:39 0.3 °C -5.7 °C 1013.8 hPa Calm     64% 0 mm
04:44 0.2 °C -5.8 °C 1013.8 hPa Calm     64% 0 mm
04:49 0.4 °C -5 °C 1013.8 hPa WSW 1.6 km/h 1.6 km/h 67% 0 mm
04:54 0.4 °C -5.2 °C 1014.1 hPa WSW 1.6 km/h 1.6 km/h 66% 0 mm
04:59 0.4 °C -4.8 °C 1014.1 hPa WSW 1.6 km/h 1.6 km/h 68% 0 mm
05:04 0.4 °C -4.9 °C 1014.1 hPa WSW 1.6 km/h 1.6 km/h 67% 0 mm
05:09 0.4 °C -5 °C 1014.1 hPa Calm     67% 0 mm
05:14 0.4 °C -4.6 °C 1014.1 hPa Calm   1.6 km/h 69% 0 mm
05:19 0.3 °C -4.7 °C 1014.1 hPa WSW 1.6 km/h 1.6 km/h 69% 0 mm
05:24 0.4 °C -3.7 °C 1014.1 hPa SW 1.6 km/h 3.2 km/h 74% 0 mm
05:29 0.3 °C -4 °C 1014.1 hPa Calm     73% 0 mm
05:34 0.1 °C -4.2 °C 1014.1 hPa Calm     73% 0 mm
05:39 -0.1 °C -4.6 °C 1014.1 hPa Calm     72% 0 mm
05:44 0.1 °C -4 °C 1014.4 hPa Calm     74% 0 mm
05:49 0.1 °C -3.8 °C 1014.4 hPa Calm   1.6 km/h 75% 0 mm
05:54 -0.2 °C -4.6 °C 1014.4 hPa Calm     72% 0 mm
05:59 -0.2 °C -5.6 °C 1014.4 hPa Calm     67% 0 mm
06:04 0 °C -5.4 °C 1014.4 hPa WSW 1.6 km/h 1.6 km/h 67% 0 mm
06:09 0.1 °C -5.7 °C 1014.4 hPa Calm   1.6 km/h 65% 0 mm
06:14 0.2 °C -5.6 °C 1014.4 hPa Calm   1.6 km/h 65% 0 mm
06:19 0.1 °C -5.9 °C 1014.8 hPa Calm     64% 0 mm
06:24 0 °C -6 °C 1014.8 hPa Calm     64% 0 mm
06:30 0.2 °C -6.1 °C 1014.8 hPa WNW 1.6 km/h 1.6 km/h 63% 0 mm
06:34 0.3 °C -4.5 °C 1014.8 hPa Calm   1.6 km/h 70% 0 mm
06:40 0.3 °C -3.6 °C 1015.1 hPa Calm     75% 0 mm
06:45 0.1 °C -3.5 °C 1015.1 hPa Calm     77% 0 mm
06:50 -0.2 °C -3.8 °C 1015.1 hPa Calm     77% 0 mm
06:55 -0.4 °C -3.9 °C 1015.1 hPa Calm     77% 0 mm
07:00 -0.5 °C -4.2 °C 1015.1 hPa Calm     76% 0 mm
07:05 -0.6 °C -4.2 °C 1015.1 hPa Calm     77% 0 mm
07:10 -0.7 °C -4.8 °C 1015.1 hPa Calm     74% 0 mm
07:15 -0.6 °C -3.7 °C 1015.5 hPa Calm     79% 0 mm
07:20 -0.4 °C -3.6 °C 1015.5 hPa Calm     79% 0 mm
07:25 -0.4 °C -4.3 °C 1015.8 hPa Calm     75% 0 mm
07:30 -0.2 °C -4.8 °C 1015.8 hPa Calm   1.6 km/h 71% 0 mm
07:35 -0.1 °C -5.1 °C 1015.8 hPa WNW 1.6 km/h 3.2 km/h 69% 0 mm
07:40 0.2 °C -5.1 °C 1016.1 hPa NW 3.2 km/h 4.8 km/h 68% 0 mm
07:45 0.4 °C -4.8 °C 1016.1 hPa NW 1.6 km/h 3.2 km/h 68% 0 mm
07:50 0.6 °C -4.7 °C 1016.1 hPa NW 3.2 km/h 3.2 km/h 68% 0 mm
07:55 0.6 °C -4.4 °C 1016.5 hPa WNW 3.2 km/h 4.8 km/h 69% 0 mm
08:00 0.9 °C -4.7 °C 1016.5 hPa NW 4.8 km/h 6.4 km/h 66% 0 mm
08:05 1.2 °C -4.4 °C 1016.5 hPa West 3.2 km/h 4.8 km/h 66% 0 mm
08:10 1.4 °C -4.3 °C 1016.5 hPa WSW 1.6 km/h 3.2 km/h 66% 0 mm
08:15 1.8 °C -3.7 °C 1016.8 hPa WSW 3.2 km/h 6.4 km/h 67% 0 mm
08:20 2.2 °C -3.3 °C 1016.8 hPa West 4.8 km/h 8 km/h 67% 0 mm
08:25 2.6 °C -3.2 °C 1016.8 hPa West 3.2 km/h 9.7 km/h 66% 0 mm
08:30 2.8 °C -3.3 °C 1016.8 hPa WSW 9.7 km/h 12.9 km/h 64% 0 mm
08:35 2.9 °C -3.2 °C 1016.8 hPa WNW 3.2 km/h 8 km/h 64% 0 mm
08:36 3 °C -3.1 °C 1016.8 hPa WSW 4.8 km/h 8 km/h 64% 0 mm
08:41 3.1 °C -3.1 °C 1016.8 hPa WNW 6.4 km/h 6.4 km/h 64% 0 mm
08:46 3.2 °C -2.9 °C 1017.2 hPa WNW 4.8 km/h 14.5 km/h 64% 0 mm
08:51 3.3 °C -3.1 °C 1017.2 hPa West 8 km/h 11.3 km/h 63% 0 mm
08:56 3.4 °C -3 °C 1017.2 hPa SW 6.4 km/h 12.9 km/h 63% 0 mm
09:01 3.6 °C -2.8 °C 1017.2 hPa WNW 9.7 km/h 11.3 km/h 63% 0 mm
09:06 3.9 °C -2.4 °C 1016.8 hPa WSW 8 km/h 11.3 km/h 63% 0 mm
09:11 3.9 °C -3.1 °C 1016.8 hPa WSW 6.4 km/h 12.9 km/h 60% 0 mm
09:16 4.2 °C -2.4 °C 1017.2 hPa WSW 8 km/h 12.9 km/h 62% 0 mm
09:21 4.3 °C -2.3 °C 1017.2 hPa WSW 6.4 km/h 9.7 km/h 62% 0 mm
09:26 4.6 °C -2.1 °C 1017.2 hPa West 8 km/h 14.5 km/h 62% 0 mm
09:31 4.7 °C -2.2 °C 1017.2 hPa WSW 3.2 km/h 12.9 km/h 61% 0 mm
09:37 5.2 °C -1.9 °C 1017.2 hPa SW 3.2 km/h 11.3 km/h 60% 0 mm
09:42 5.5 °C -2.6 °C 1017.2 hPa WSW 17.7 km/h 17.7 km/h 56% 0 mm
09:47 5.9 °C -2.7 °C 1017.2 hPa WNW 9.7 km/h 14.5 km/h 54% 0 mm
09:52 6.2 °C -1.9 °C 1017.2 hPa SW 14.5 km/h 14.5 km/h 56% 0 mm
09:57 6.5 °C -1.9 °C 1017.2 hPa West 6.4 km/h 16.1 km/h 55% 0 mm
10:02 6.8 °C -2.1 °C 1016.8 hPa WSW 11.3 km/h 14.5 km/h 53% 0 mm
10:07 7.2 °C -1.7 °C 1017.2 hPa West 12.9 km/h 14.5 km/h 53% 0 mm
10:12 7.3 °C -2.4 °C 1017.2 hPa West 6.4 km/h 19.3 km/h 50% 0 mm
10:17 7.5 °C -3.1 °C 1017.2 hPa WSW 6.4 km/h 11.3 km/h 47% 0 mm
10:22 7.6 °C -3.3 °C 1017.2 hPa West 14.5 km/h 19.3 km/h 46% 0 mm
10:27 7.6 °C -3.9 °C 1017.2 hPa WSW 9.7 km/h 22.5 km/h 44% 0 mm
10:32 7.8 °C -4 °C 1017.2 hPa WSW 12.9 km/h 22.5 km/h 43% 0 mm
10:37 7.8 °C -4.7 °C 1017.2 hPa NW 11.3 km/h 19.3 km/h 41% 0 mm
10:42 7.9 °C -3.6 °C 1017.2 hPa NW 14.5 km/h 20.9 km/h 44% 0 mm
10:47 8.3 °C -3.6 °C 1017.2 hPa West 4.8 km/h 17.7 km/h 43% 0 mm
10:52 8.5 °C -3.3 °C 1017.2 hPa WSW 11.3 km/h 22.5 km/h 43% 0 mm
10:57 8.6 °C -2.1 °C 1017.2 hPa WSW 9.7 km/h 14.5 km/h 47% 0 mm
11:02 8.2 °C -3.6 °C 1017.2 hPa WSW 14.5 km/h 22.5 km/h 43% 0 mm
11:07 8.6 °C -3.3 °C 1017.2 hPa WNW 12.9 km/h 22.5 km/h 43% 0 mm
11:12 8.5 °C -3.3 °C 1017.2 hPa WSW 14.5 km/h 20.9 km/h 43% 0 mm
11:17 8.7 °C -1.4 °C 1017.2 hPa WSW 9.7 km/h 12.9 km/h 49% 0 mm
11:22 9.1 °C -2.6 °C 1017.2 hPa WNW 17.7 km/h 17.7 km/h 44% 0 mm
11:27 8.9 °C -4.3 °C 1017.2 hPa NW 11.3 km/h 37 km/h 39% 0 mm
11:33 8.8 °C -3.4 °C 1017.2 hPa SW 9.7 km/h 14.5 km/h 42% 0 mm
11:38 9 °C -2.9 °C 1016.8 hPa WSW 8 km/h 17.7 km/h 43% 0 mm
11:43 9.1 °C -3.2 °C 1016.8 hPa SSW 16.1 km/h 25.7 km/h 42% 0 mm
11:48 9.1 °C -2.8 °C 1016.8 hPa WSW 12.9 km/h 25.7 km/h 43% 0 mm
11:53 9.1 °C -3.2 °C 1016.8 hPa WNW 17.7 km/h 22.5 km/h 42% 0 mm
11:58 8.8 °C -3.1 °C 1017.2 hPa WSW 14.5 km/h 20.9 km/h 43% 0 mm
12:03 8.7 °C -3.4 °C 1016.8 hPa SW 19.3 km/h 25.7 km/h 42% 0 mm
12:08 8.7 °C -3.8 °C 1016.8 hPa WSW 16.1 km/h 19.3 km/h 41% 0 mm
12:13 8.5 °C -4 °C 1016.8 hPa West 17.7 km/h 32.2 km/h 41% 0 mm
12:18 8.7 °C -3.5 °C 1016.8 hPa SW 14.5 km/h 20.9 km/h 42% 0 mm
12:23 8.9 °C -3.9 °C 1016.8 hPa WSW 12.9 km/h 25.7 km/h 40% 0 mm
12:28 8.7 °C -3.8 °C 1016.8 hPa WSW 8 km/h 24.1 km/h 41% 0 mm
12:33 8.9 °C -3.9 °C 1016.8 hPa West 12.9 km/h 27.4 km/h 40% 0 mm
12:38 9 °C -3.9 °C 1016.8 hPa West 22.5 km/h 29 km/h 40% 0 mm
12:43 9.2 °C -3.4 °C 1016.8 hPa West 17.7 km/h 17.7 km/h 41% 0 mm
12:48 9.6 °C -3.7 °C 1016.8 hPa WSW 20.9 km/h 24.1 km/h 39% 0 mm
12:53 9.6 °C -4.1 °C 1016.8 hPa WSW 16.1 km/h 22.5 km/h 38% 0 mm
12:58 9.8 °C -3.5 °C 1016.8 hPa West 8 km/h 16.1 km/h 39% 0 mm
13:03 9.6 °C -4.4 °C 1016.8 hPa WSW 11.3 km/h 20.9 km/h 37% 0 mm
13:08 10 °C -3.7 °C 1016.8 hPa WSW 17.7 km/h 19.3 km/h 38% 0 mm
13:13 9.8 °C -4.9 °C 1016.5 hPa West 14.5 km/h 19.3 km/h 35% 0 mm
13:18 9.8 °C -4.9 °C 1016.8 hPa West 14.5 km/h 35.4 km/h 35% 0 mm
13:23 10.4 °C -4.4 °C 1016.5 hPa WNW 22.5 km/h 29 km/h 35% 0 mm
13:28 10 °C -5.6 °C 1016.5 hPa WNW 22.5 km/h 30.6 km/h 33% 0 mm
13:33 9.7 °C -5 °C 1016.5 hPa West 16.1 km/h 22.5 km/h 35% 0 mm
13:38 10.2 °C -4.6 °C 1016.5 hPa West 20.9 km/h 24.1 km/h 35% 0 mm
13:43 10.4 °C -5.1 °C 1016.1 hPa West 30.6 km/h 30.6 km/h 33% 0 mm
13:48 10.2 °C -4.6 °C 1016.1 hPa WNW 22.5 km/h 29 km/h 35% 0 mm
13:53 10.9 °C -3.2 °C 1016.1 hPa West 11.3 km/h 22.5 km/h 37% 0 mm
13:58 10.9 °C -3.9 °C 1015.8 hPa West 9.7 km/h 27.4 km/h 35% 0 mm
14:03 10.7 °C -4.9 °C 1015.8 hPa WSW 16.1 km/h 27.4 km/h 33% 0 mm
14:08 10.6 °C -5.1 °C 1015.8 hPa WSW 9.7 km/h 38.6 km/h 33% 0 mm
14:13 10.8 °C -4.8 °C 1015.8 hPa WNW 14.5 km/h 25.7 km/h 33% 0 mm
14:18 11.3 °C -4.3 °C 1015.8 hPa West 16.1 km/h 27.4 km/h 33% 0 mm
14:23 11 °C -5.5 °C 1015.5 hPa WSW 16.1 km/h 25.7 km/h 31% 0 mm
14:29 10.8 °C -5.3 °C 1015.5 hPa WNW 30.6 km/h 30.6 km/h 32% 0 mm
14:34 10.5 °C -5.5 °C 1015.5 hPa WNW 20.9 km/h 27.4 km/h 32% 0 mm
14:39 10.6 °C -4.6 °C 1015.8 hPa West 11.3 km/h 24.1 km/h 34% 0 mm
14:44 10.7 °C -5.7 °C 1015.8 hPa WNW 20.9 km/h 22.5 km/h 31% 0 mm
14:49 10.7 °C -4.9 °C 1015.8 hPa West 25.7 km/h 25.7 km/h 33% 0 mm
14:54 11 °C -4.3 °C 1015.5 hPa WSW 19.3 km/h 32.2 km/h 34% 0 mm
14:59 11.2 °C -4.9 °C 1015.5 hPa West 12.9 km/h 24.1 km/h 32% 0 mm
15:04 11.1 °C -4.2 °C 1015.5 hPa West 24.1 km/h 24.1 km/h 34% 0 mm
15:09 10.9 °C -5.1 °C 1015.5 hPa WNW 19.3 km/h 25.7 km/h 32% 0 mm
15:14 11.1 °C -4.6 °C 1015.5 hPa SW 19.3 km/h 24.1 km/h 33% 0 mm
15:19 11.3 °C -4.3 °C 1015.5 hPa WSW 9.7 km/h 24.1 km/h 33% 0 mm
15:24 11.3 °C -5.7 °C 1015.5 hPa WNW 14.5 km/h 25.7 km/h 30% 0 mm
15:29 11.4 °C -6 °C 1015.5 hPa WSW 22.5 km/h 24.1 km/h 29% 0 mm
15:34 11.7 °C -4.8 °C 1015.1 hPa WNW 9.7 km/h 17.7 km/h 31% 0 mm
15:39 11.8 °C -4.7 °C 1015.1 hPa WNW 12.9 km/h 24.1 km/h 31% 0 mm
15:44 11.9 °C -5.1 °C 1015.1 hPa SW 20.9 km/h 29 km/h 30% 0 mm
15:49 12.2 °C -4.9 °C 1015.1 hPa WNW 6.4 km/h 16.1 km/h 30% 0 mm
15:54 12.1 °C -5 °C 1015.1 hPa WSW 12.9 km/h 14.5 km/h 30% 0 mm
15:59 11.8 °C -5.2 °C 1015.1 hPa SW 14.5 km/h 27.4 km/h 30% 0 mm
16:04 11.7 °C -4.4 °C 1015.1 hPa WSW 12.9 km/h 24.1 km/h 32% 0 mm
16:09 12.1 °C -4.6 °C 1015.1 hPa West 9.7 km/h 19.3 km/h 31% 0 mm
16:14 12.2 °C -4.4 °C 1015.1 hPa WSW 9.7 km/h 19.3 km/h 31% 0 mm
16:19 12.1 °C -4.9 °C 1015.1 hPa SW 9.7 km/h 27.4 km/h 30% 0 mm
16:24 12.1 °C -4.6 °C 1015.1 hPa WNW 16.1 km/h 20.9 km/h 31% 0 mm
16:29 12.1 °C -5.4 °C 1015.1 hPa WSW 12.9 km/h 20.9 km/h 29% 0 mm
16:34 12.3 °C -4.8 °C 1015.1 hPa WSW 11.3 km/h 19.3 km/h 30% 0 mm
16:39 12.5 °C -4.6 °C 1014.8 hPa WNW 11.3 km/h 24.1 km/h 30% 0 mm
16:44 12.3 °C -5.2 °C 1014.8 hPa WSW 17.7 km/h 20.9 km/h 29% 0 mm
16:49 12.2 °C -5.3 °C 1014.8 hPa SW 17.7 km/h 17.7 km/h 29% 0 mm
16:54 12 °C -4.6 °C 1014.8 hPa West 12.9 km/h 20.9 km/h 31% 0 mm
16:59 11.9 °C -5.1 °C 1014.8 hPa WSW 9.7 km/h 22.5 km/h 30% 0 mm
17:04 11.7 °C -4.9 °C 1015.1 hPa West 14.5 km/h 24.1 km/h 31% 0 mm
17:09 11.8 °C -4.8 °C 1015.1 hPa WSW 14.5 km/h 19.3 km/h 31% 0 mm
17:14 12.1 °C -4.5 °C 1014.8 hPa WSW 11.3 km/h 16.1 km/h 31% 0 mm
17:19 12.2 °C -4.8 °C 1014.8 hPa West 14.5 km/h 16.1 km/h 30% 0 mm
17:24 12.2 °C -4.4 °C 1014.8 hPa WSW 16.1 km/h 20.9 km/h 31% 0 mm
17:29 12.2 °C -4.4 °C 1014.8 hPa West 6.4 km/h 19.3 km/h 31% 0 mm
17:35 12.2 °C -4 °C 1014.8 hPa WNW 6.4 km/h 20.9 km/h 32% 0 mm
17:40 12.1 °C -4.6 °C 1014.8 hPa West 9.7 km/h 14.5 km/h 31% 0 mm
17:45 11.8 °C -4.8 °C 1014.8 hPa WSW 11.3 km/h 19.3 km/h 31% 0 mm
17:50 11.6 °C -4.5 °C 1014.8 hPa WSW 14.5 km/h 14.5 km/h 32% 0 mm
17:55 11.6 °C -4.1 °C 1014.8 hPa WSW 4.8 km/h 16.1 km/h 33% 0 mm
18:00 12 °C -3.4 °C 1014.8 hPa WSW 8 km/h 14.5 km/h 34% 0 mm
18:05 12.2 °C -4.1 °C 1014.8 hPa SW 12.9 km/h 16.1 km/h 32% 0 mm
18:10 12.1 °C -4.1 °C 1014.8 hPa WSW 6.4 km/h 12.9 km/h 32% 0 mm
18:15 12 °C -4.6 °C 1014.8 hPa West 4.8 km/h 14.5 km/h 31% 0 mm
18:20 11.7 °C -4 °C 1015.1 hPa West 3.2 km/h 12.9 km/h 33% 0 mm
18:25 11.6 °C -3.7 °C 1015.1 hPa WSW 6.4 km/h 11.3 km/h 34% 0 mm
18:30 11.4 °C -3.9 °C 1015.1 hPa SW 4.8 km/h 6.4 km/h 34% 0 mm
18:35 11.3 °C -3.6 °C 1015.1 hPa WSW 1.6 km/h 3.2 km/h 35% 0 mm
18:40 11.1 °C -3.8 °C 1015.1 hPa WSW 1.6 km/h 4.8 km/h 35% 0 mm
18:45 10.9 °C -3.9 °C 1015.1 hPa WSW 3.2 km/h 3.2 km/h 35% 0 mm
18:47 10.8 °C -4 °C 1015.1 hPa WSW 1.6 km/h 3.2 km/h 35% 0 mm
18:52 10.6 °C -3.8 °C 1015.1 hPa SW 3.2 km/h 3.2 km/h 36% 0 mm
18:57 10.4 °C -3.3 °C 1015.1 hPa SW 1.6 km/h 3.2 km/h 38% 0 mm
19:02 10.2 °C -3.5 °C 1015.1 hPa Calm   1.6 km/h 38% 0 mm
19:07 10.1 °C -3.6 °C 1015.1 hPa SSW 1.6 km/h 3.2 km/h 38% 0 mm
19:12 10 °C -3 °C 1015.1 hPa South 3.2 km/h 3.2 km/h 40% 0 mm
19:17 10.1 °C -3.6 °C 1015.1 hPa South 3.2 km/h 4.8 km/h 38% 0 mm
19:22 10.1 °C -3.2 °C 1015.1 hPa SSW 1.6 km/h 3.2 km/h 39% 0 mm
19:27 10.1 °C -3.9 °C 1014.8 hPa SSW 1.6 km/h 3.2 km/h 37% 0 mm
19:33 10.2 °C -3.2 °C 1014.8 hPa South 3.2 km/h 4.8 km/h 39% 0 mm
19:38 10.2 °C -3.4 °C 1014.8 hPa SSE 4.8 km/h 4.8 km/h 38% 0 mm
19:43 10.2 °C -3.2 °C 1015.1 hPa SSE 3.2 km/h 4.8 km/h 39% 0 mm
19:48 10.1 °C -2.9 °C 1015.1 hPa SSE 1.6 km/h 6.4 km/h 40% 0 mm
19:53 10 °C -3 °C 1015.1 hPa South 4.8 km/h 4.8 km/h 40% 0 mm
19:58 9.9 °C -3 °C 1015.1 hPa South 4.8 km/h 6.4 km/h 40% 0 mm
20:03 9.9 °C -3 °C 1015.1 hPa South 3.2 km/h 4.8 km/h 40% 0 mm
20:08 9.9 °C -2.7 °C 1015.1 hPa South 1.6 km/h 3.2 km/h 41% 0 mm
20:13 9.9 °C -2.7 °C 1015.1 hPa SSE 1.6 km/h 3.2 km/h 41% 0 mm
20:18 9.8 °C -2.8 °C 1015.1 hPa SSE 4.8 km/h 4.8 km/h 41% 0 mm
20:23 9.8 °C -2.8 °C 1015.1 hPa South 4.8 km/h 4.8 km/h 41% 0 mm
20:28 9.7 °C -2.2 °C 1015.1 hPa South 4.8 km/h 4.8 km/h 43% 0 mm
20:33 9.7 °C -2.3 °C 1014.8 hPa SSW 6.4 km/h 8 km/h 43% 0 mm
20:38 9.6 °C -2.3 °C 1014.8 hPa SE 4.8 km/h 6.4 km/h 43% 0 mm
20:43 9.5 °C -2.4 °C 1014.8 hPa SSE 6.4 km/h 8 km/h 43% 0 mm
20:48 9.4 °C -2.5 °C 1014.8 hPa SSE 6.4 km/h 8 km/h 43% 0 mm
20:53 9.3 °C -2.6 °C 1014.8 hPa South 8 km/h 9.7 km/h 43% 0 mm
20:58 9.3 °C -2.7 °C 1014.8 hPa SSW 6.4 km/h 8 km/h 43% 0 mm
21:03 9.1 °C -2.5 °C 1014.4 hPa SSE 4.8 km/h 11.3 km/h 44% 0 mm
21:08 9.1 °C -2.6 °C 1014.4 hPa South 6.4 km/h 8 km/h 44% 0 mm
21:13 9 °C -2.6 °C 1014.4 hPa SE 8 km/h 11.3 km/h 44% 0 mm
21:18 9.1 °C -2.6 °C 1014.1 hPa South 6.4 km/h 16.1 km/h 44% 0 mm
21:23 9.1 °C -2.8 °C 1014.4 hPa SSW 6.4 km/h 14.5 km/h 43% 0 mm
21:28 9.1 °C -2.5 °C 1014.4 hPa SW 6.4 km/h 16.1 km/h 44% 0 mm
21:33 9.2 °C -2.4 °C 1014.4 hPa SSW 11.3 km/h 14.5 km/h 44% 0 mm
21:38 9.1 °C -2.2 °C 1014.4 hPa South 17.7 km/h 17.7 km/h 45% 0 mm
21:43 9.2 °C -2.2 °C 1014.4 hPa SSE 9.7 km/h 12.9 km/h 45% 0 mm
21:48 9.3 °C -2.3 °C 1014.4 hPa SSW 11.3 km/h 12.9 km/h 44% 0 mm
21:53 9.4 °C -2.2 °C 1014.4 hPa South 4.8 km/h 14.5 km/h 44% 0 mm
21:58 9.6 °C -2.1 °C 1014.4 hPa South 6.4 km/h 16.1 km/h 44% 0 mm
22:03 9.6 °C -2.3 °C 1014.4 hPa South 11.3 km/h 14.5 km/h 43% 0 mm
22:08 9.7 °C -2 °C 1014.4 hPa South 6.4 km/h 14.5 km/h 44% 0 mm
22:13 9.7 °C -2.2 °C 1014.4 hPa SSE 4.8 km/h 19.3 km/h 43% 0 mm
22:18 9.7 °C -2.3 °C 1014.1 hPa South 14.5 km/h 19.3 km/h 43% 0 mm
22:23 9.6 °C -2.1 °C 1014.1 hPa SSW 6.4 km/h 17.7 km/h 44% 0 mm
22:28 9.6 °C -2.1 °C 1014.1 hPa SW 6.4 km/h 17.7 km/h 44% 0 mm
22:34 9.5 °C -2.2 °C 1014.1 hPa South 11.3 km/h 14.5 km/h 44% 0 mm
22:39 9.6 °C -1.8 °C 1014.1 hPa SW 12.9 km/h 16.1 km/h 45% 0 mm
22:44 9.6 °C -2.1 °C 1014.1 hPa South 11.3 km/h 16.1 km/h 44% 0 mm
22:49 9.7 °C -2 °C 1013.8 hPa South 9.7 km/h 14.5 km/h 44% 0 mm
22:54 9.7 °C -1.7 °C 1013.8 hPa SSW 12.9 km/h 12.9 km/h 45% 0 mm
22:59 9.6 °C -1.7 °C 1013.8 hPa South 11.3 km/h 20.9 km/h 45% 0 mm
23:04 9.6 °C -1.8 °C 1013.8 hPa SSW 6.4 km/h 17.7 km/h 45% 0 mm
23:09 9.5 °C -1.6 °C 1013.8 hPa SW 9.7 km/h 14.5 km/h 46% 0 mm
23:14 9.6 °C -1.8 °C 1013.8 hPa SW 12.9 km/h 17.7 km/h 45% 0 mm
23:19 9.5 °C -1.8 °C 1013.8 hPa SSW 11.3 km/h 17.7 km/h 45% 0 mm
23:24 9.6 °C -1.8 °C 1013.8 hPa WSW 11.3 km/h 19.3 km/h 45% 0 mm
23:29 9.5 °C -1.8 °C 1013.4 hPa SSW 8 km/h 16.1 km/h 45% 0 mm
23:34 9.6 °C -1.8 °C 1013.4 hPa SSW 9.7 km/h 17.7 km/h 45% 0 mm
23:39 9.8 °C -1.9 °C 1013.4 hPa SSW 12.9 km/h 24.1 km/h 44% 0 mm
23:40 9.8 °C -1.9 °C 1013.1 hPa SW 16.1 km/h 24.1 km/h 44% 0 mm
23:45 10 °C -2 °C 1013.1 hPa SW 14.5 km/h 32.2 km/h 43% 0 mm
23:50 10.3 °C -2 °C 1013.4 hPa SW 17.7 km/h 24.1 km/h 42% 0 mm
23:55 10.7 °C -1.7 °C 1013.4 hPa SW 17.7 km/h 25.7 km/h 42% 0 mm
Compliments of Weather Underground